Time,TemperatureF,DewpointF,PressureIn,WindDirection,WindDirectionDegrees,WindSpeedMPH,WindSpeedGustMPH,Humidity,HourlyPrecipIn,Conditions,Clouds,dailyrainin,SolarRadiationWatts/m^2,SoftwareType,DateUTC
2013-11-17 00:04:00,39.0,37.0,30.31,SSE,151,1.0,-999.0,93,-99.99,,,0.00,0,weatherlink.com 1.10,2013-11-17 00:04:00,
2013-11-17 00:19:00,38.7,37.0,30.31,SSE,151,0.0,-999.0,95,-99.99,,,0.00,0,weatherlink.com 1.10,2013-11-17 00:19:00,
2013-11-17 00:34:00,37.9,37.0,30.31,SSE,151,2.0,-999.0,95,-99.99,,,0.00,0,weatherlink.com 1.10,2013-11-17 00:34:00,
2013-11-17 00:49:00,37.8,36.0,30.30,SSE,151,0.0,-999.0,94,-99.99,,,0.00,0,weatherlink.com 1.10,2013-11-17 00:49:00,
2013-11-17 01:04:00,37.4,36.0,30.31,ESE,117,0.0,-999.0,95,-99.99,,,0.00,0,weatherlink.com 1.10,2013-11-17 01:04:00,
2013-11-17 01:19:00,36.8,35.0,30.31,ESE,117,0.0,-999.0,94,-99.99,,,0.00,0,weatherlink.com 1.10,2013-11-17 01:19:00,
2013-11-17 01:34:00,36.4,35.0,30.31,ESE,117,1.0,-999.0,95,-99.99,,,0.00,0,weatherlink.com 1.10,2013-11-17 01:34:00,
2013-11-17 01:50:00,36.6,35.0,30.31,ESE,117,1.0,-999.0,95,-99.99,,,0.00,0,weatherlink.com 1.10,2013-11-17 01:50:00,
2013-11-17 02:05:00,35.8,35.0,30.30,ESE,122,0.0,-999.0,95,-99.99,,,0.00,0,weatherlink.com 1.10,2013-11-17 02:05:00,
2013-11-17 02:20:00,36.6,36.0,30.30,ESE,122,0.0,-999.0,96,-99.99,,,0.00,0,weatherlink.com 1.10,2013-11-17 02:20:00,
2013-11-17 02:35:00,35.6,34.0,30.31,ESE,122,0.0,-999.0,95,-99.99,,,0.00,0,weatherlink.com 1.10,2013-11-17 02:35:00,
2013-11-17 02:50:00,34.9,34.0,30.31,ESE,122,0.0,-999.0,95,-99.99,,,0.00,0,weatherlink.com 1.10,2013-11-17 02:50:00,
2013-11-17 03:05:00,34.7,34.0,30.31,ESE,122,0.0,-999.0,95,-99.99,,,0.00,0,weatherlink.com 1.10,2013-11-17 03:05:00,
2013-11-17 03:20:00,34.4,33.0,30.30,ESE,122,0.0,-999.0,95,-99.99,,,0.00,0,weatherlink.com 1.10,2013-11-17 03:20:00,
2013-11-17 03:35:00,34.6,34.0,30.30,ESE,113,4.0,-999.0,96,-99.99,,,0.00,0,weatherlink.com 1.10,2013-11-17 03:35:00,
2013-11-17 03:50:00,34.7,34.0,30.30,ESE,113,0.0,-999.0,96,-99.99,,,0.00,0,weatherlink.com 1.10,2013-11-17 03:50:00,
2013-11-17 04:05:00,33.8,33.0,30.30,ESE,113,2.0,-999.0,96,-99.99,,,0.00,0,weatherlink.com 1.10,2013-11-17 04:05:00,
2013-11-17 04:20:00,33.2,32.0,30.29,ESE,113,0.0,-999.0,96,-99.99,,,0.00,0,weatherlink.com 1.10,2013-11-17 04:20:00,
2013-11-17 04:35:00,33.3,32.0,30.29,ESE,113,0.0,-999.0,96,-99.99,,,0.00,0,weatherlink.com 1.10,2013-11-17 04:35:00,
2013-11-17 04:50:00,34.2,34.0,30.29,ESE,113,0.0,-999.0,97,-99.99,,,0.00,0,weatherlink.com 1.10,2013-11-17 04:50:00,
2013-11-17 05:05:00,33.6,33.0,30.29,ESE,113,2.0,-999.0,96,-99.99,,,0.00,0,weatherlink.com 1.10,2013-11-17 05:05:00,
2013-11-17 05:20:00,32.7,32.0,30.28,NNE,24,0.0,-999.0,96,-99.99,,,0.00,0,weatherlink.com 1.10,2013-11-17 05:20:00,
2013-11-17 05:35:00,32.9,32.0,30.27,NNE,24,0.0,-999.0,96,-99.99,,,0.00,0,weatherlink.com 1.10,2013-11-17 05:35:00,
2013-11-17 05:50:00,32.6,32.0,30.28,NNE,24,0.0,-999.0,96,-99.99,,,0.00,0,weatherlink.com 1.10,2013-11-17 05:50:00,
2013-11-17 06:05:00,32.2,31.0,30.28,NNE,24,0.0,-999.0,96,-99.99,,,0.00,0,weatherlink.com 1.10,2013-11-17 06:05:00,
2013-11-17 06:20:00,31.8,31.0,30.28,NNE,24,0.0,-999.0,96,-99.99,,,0.00,0,weatherlink.com 1.10,2013-11-17 06:20:00,
2013-11-17 06:35:00,32.0,31.0,30.27,NNE,24,0.0,-999.0,96,-99.99,,,0.00,0,weatherlink.com 1.10,2013-11-17 06:35:00,
2013-11-17 06:50:00,31.7,31.0,30.27,NNE,24,0.0,-999.0,96,-99.99,,,0.00,0,weatherlink.com 1.10,2013-11-17 06:50:00,
2013-11-17 07:05:00,31.6,31.0,30.27,NNE,24,2.0,-999.0,96,-99.99,,,0.00,0,weatherlink.com 1.10,2013-11-17 07:05:00,
2013-11-17 07:20:00,31.6,31.0,30.26,NNE,24,0.0,-999.0,97,-99.99,,,0.00,0,weatherlink.com 1.10,2013-11-17 07:20:00,
2013-11-17 07:35:00,31.2,30.0,30.26,NNE,24,0.0,-999.0,96,-99.99,,,0.00,0,weatherlink.com 1.10,2013-11-17 07:35:00,
2013-11-17 07:50:00,31.4,31.0,30.26,NNE,24,0.0,-999.0,97,-99.99,,,0.00,0,weatherlink.com 1.10,2013-11-17 07:50:00,
2013-11-17 08:05:00,31.1,30.0,30.26,NNE,24,0.0,-999.0,96,-99.99,,,0.00,0,weatherlink.com 1.10,2013-11-17 08:05:00,
2013-11-17 08:20:00,31.1,30.0,30.26,NNE,24,0.0,-999.0,97,-99.99,,,0.00,9,weatherlink.com 1.10,2013-11-17 08:20:00,
2013-11-17 08:35:00,31.1,30.0,30.25,NNE,24,0.0,-999.0,97,-99.99,,,0.00,18,weatherlink.com 1.10,2013-11-17 08:35:00,
2013-11-17 08:50:00,31.3,31.0,30.25,NNE,24,0.0,-999.0,97,-99.99,,,0.00,28,weatherlink.com 1.10,2013-11-17 08:50:00,
2013-11-17 09:05:00,32.2,32.0,30.25,NNE,24,0.0,-999.0,97,-99.99,,,0.00,35,weatherlink.com 1.10,2013-11-17 09:05:00,
2013-11-17 09:20:00,32.9,32.0,30.25,NNE,24,0.0,-999.0,97,-99.99,,,0.00,44,weatherlink.com 1.10,2013-11-17 09:20:00,
2013-11-17 09:36:00,33.4,33.0,30.24,NNE,24,0.0,-999.0,97,-99.99,,,0.00,81,weatherlink.com 1.10,2013-11-17 09:36:00,
2013-11-17 09:51:00,34.6,34.0,30.24,NNE,24,0.0,-999.0,98,-99.99,,,0.00,130,weatherlink.com 1.10,2013-11-17 09:51:00,
2013-11-17 10:06:00,36.1,36.0,30.23,NNE,24,1.0,-999.0,98,-99.99,,,0.00,120,weatherlink.com 1.10,2013-11-17 10:06:00,
2013-11-17 10:21:00,36.9,36.0,30.23,NNE,24,0.0,-999.0,98,-99.99,,,0.00,51,weatherlink.com 1.10,2013-11-17 10:21:00,
2013-11-17 10:36:00,37.1,36.0,30.22,NNE,24,1.0,-999.0,97,-99.99,,,0.00,44,weatherlink.com 1.10,2013-11-17 10:36:00,
2013-11-17 10:51:00,37.8,37.0,30.21,NNE,24,0.0,-999.0,98,-99.99,,,0.00,76,weatherlink.com 1.10,2013-11-17 10:51:00,
2013-11-17 11:06:00,38.6,38.0,30.20,NNE,24,0.0,-999.0,98,-99.99,,,0.00,97,weatherlink.com 1.10,2013-11-17 11:06:00,
2013-11-17 11:21:00,39.6,39.0,30.19,NNE,24,0.0,-999.0,98,-99.99,,,0.00,118,weatherlink.com 1.10,2013-11-17 11:21:00,
2013-11-17 11:36:00,40.7,40.0,30.18,NNE,24,1.0,-999.0,98,-99.99,,,0.00,137,weatherlink.com 1.10,2013-11-17 11:36:00,
2013-11-17 11:51:00,41.4,41.0,30.17,NNE,24,0.0,-999.0,98,-99.99,,,0.00,77,weatherlink.com 1.10,2013-11-17 11:51:00,
2013-11-17 12:06:00,41.8,41.0,30.16,NNE,24,0.0,-999.0,98,-99.99,,,0.00,56,weatherlink.com 1.10,2013-11-17 12:06:00,
2013-11-17 12:21:00,41.8,41.0,30.15,NNE,24,1.0,-999.0,98,-99.99,,,0.00,46,weatherlink.com 1.10,2013-11-17 12:21:00,
2013-11-17 12:36:00,41.8,41.0,30.14,NNE,24,3.0,-999.0,97,-99.99,,,0.00,72,weatherlink.com 1.10,2013-11-17 12:36:00,
2013-11-17 12:51:00,42.1,41.0,30.13,NNE,24,0.0,-999.0,97,-99.99,,,0.00,65,weatherlink.com 1.10,2013-11-17 12:51:00,
2013-11-17 13:06:00,42.3,42.0,30.12,NNE,24,3.0,-999.0,98,-99.99,,,0.00,56,weatherlink.com 1.10,2013-11-17 13:06:00,
2013-11-17 13:21:00,42.3,42.0,30.11,NNE,24,0.0,-999.0,97,-99.99,,,0.00,65,weatherlink.com 1.10,2013-11-17 13:21:00,
2013-11-17 13:36:00,42.5,42.0,30.10,NNE,24,2.0,-999.0,97,-99.99,,,0.00,58,weatherlink.com 1.10,2013-11-17 13:36:00,
2013-11-17 13:51:00,42.6,42.0,30.09,NNE,24,3.0,-999.0,97,-99.99,,,0.00,28,weatherlink.com 1.10,2013-11-17 13:51:00,
2013-11-17 14:06:00,42.4,42.0,30.08,NNE,24,0.0,-999.0,97,-99.99,,,0.00,26,weatherlink.com 1.10,2013-11-17 14:06:00,
2013-11-17 14:21:00,42.5,42.0,30.07,NNE,24,1.0,-999.0,97,-99.99,,,0.00,32,weatherlink.com 1.10,2013-11-17 14:21:00,
2013-11-17 14:36:00,42.6,42.0,30.06,NNE,24,2.0,-999.0,97,-99.99,,,0.00,28,weatherlink.com 1.10,2013-11-17 14:36:00,
2013-11-17 14:51:00,42.3,42.0,30.05,NNE,25,2.0,-999.0,97,-99.99,,,0.00,19,weatherlink.com 1.10,2013-11-17 14:51:00,
2013-11-17 15:06:00,41.9,41.0,30.04,NNE,20,1.0,-999.0,97,-99.99,,,0.00,9,weatherlink.com 1.10,2013-11-17 15:06:00,
2013-11-17 15:21:00,41.7,41.0,30.03,NNE,16,4.0,-999.0,97,-99.99,,,0.01,9,weatherlink.com 1.10,2013-11-17 15:21:00,
2013-11-17 15:37:00,41.7,41.0,30.03,NNE,18,2.0,-999.0,97,-99.99,,,0.01,0,weatherlink.com 1.10,2013-11-17 15:37:00,
2013-11-17 15:52:00,41.7,41.0,30.02,NNE,18,3.0,-999.0,97,-99.99,,,0.01,0,weatherlink.com 1.10,2013-11-17 15:52:00,
2013-11-17 16:07:00,41.7,41.0,30.01,NNE,17,3.0,-999.0,97,-99.99,,,0.01,0,weatherlink.com 1.10,2013-11-17 16:07:00,
2013-11-17 16:22:00,41.5,41.0,30.01,NNE,13,4.0,-999.0,97,-99.99,,,0.01,0,weatherlink.com 1.10,2013-11-17 16:22:00,
2013-11-17 16:37:00,41.4,41.0,30.00,NNE,29,2.0,-999.0,97,-99.99,,,0.02,0,weatherlink.com 1.10,2013-11-17 16:37:00,
2013-11-17 16:52:00,41.4,41.0,30.00,NNE,24,2.0,-999.0,97,-99.99,,,0.02,0,weatherlink.com 1.10,2013-11-17 16:52:00,
2013-11-17 17:07:00,41.3,41.0,29.99,NNE,32,4.0,-999.0,97,-99.99,,,0.02,0,weatherlink.com 1.10,2013-11-17 17:07:00,
2013-11-17 17:22:00,41.4,41.0,29.99,NNE,26,2.0,-999.0,97,-99.99,,,0.02,0,weatherlink.com 1.10,2013-11-17 17:22:00,
2013-11-17 17:37:00,41.3,41.0,29.98,NNE,17,2.0,-999.0,97,-99.99,,,0.02,0,weatherlink.com 1.10,2013-11-17 17:37:00,
2013-11-17 17:52:00,41.4,41.0,29.97,NNE,12,0.0,-999.0,97,-99.99,,,0.02,0,weatherlink.com 1.10,2013-11-17 17:52:00,
2013-11-17 18:07:00,41.4,41.0,29.97,NNE,19,1.0,-999.0,97,-99.99,,,0.02,0,weatherlink.com 1.10,2013-11-17 18:07:00,
2013-11-17 18:22:00,41.5,41.0,29.96,NNE,21,2.0,-999.0,97,-99.99,,,0.02,0,weatherlink.com 1.10,2013-11-17 18:22:00,
2013-11-17 18:37:00,41.6,41.0,29.96,NNW,342,1.0,-999.0,98,-99.99,,,0.02,0,weatherlink.com 1.10,2013-11-17 18:37:00,
2013-11-17 18:52:00,41.6,41.0,29.96,North,350,1.0,-999.0,98,-99.99,,,0.03,0,weatherlink.com 1.10,2013-11-17 18:52:00,
2013-11-17 19:07:00,41.7,41.0,29.95,North,5,0.0,-999.0,98,-99.99,,,0.03,0,weatherlink.com 1.10,2013-11-17 19:07:00,
2013-11-17 19:22:00,41.8,41.0,29.95,North,5,0.0,-999.0,98,-99.99,,,0.04,0,weatherlink.com 1.10,2013-11-17 19:22:00,
2013-11-17 19:38:00,41.9,41.0,29.95,North,5,0.0,-999.0,98,-99.99,,,0.04,0,weatherlink.com 1.10,2013-11-17 19:38:00,
2013-11-17 19:52:00,41.9,41.0,29.94,North,5,0.0,-999.0,98,-99.99,,,0.05,0,weatherlink.com 1.10,2013-11-17 19:52:00,
2013-11-17 20:07:00,41.8,41.0,29.93,North,5,0.0,-999.0,98,-99.99,,,0.05,0,weatherlink.com 1.10,2013-11-17 20:07:00,
2013-11-17 20:22:00,41.7,41.0,29.93,North,5,0.0,-999.0,98,-99.99,,,0.05,0,weatherlink.com 1.10,2013-11-17 20:22:00,
2013-11-17 20:37:00,41.7,41.0,29.93,North,5,0.0,-999.0,98,-99.99,,,0.05,0,weatherlink.com 1.10,2013-11-17 20:37:00,
2013-11-17 20:52:00,41.7,41.0,29.92,North,5,0.0,-999.0,98,-99.99,,,0.05,0,weatherlink.com 1.10,2013-11-17 20:52:00,
2013-11-17 21:07:00,41.7,41.0,29.92,North,5,0.0,-999.0,98,-99.99,,,0.05,0,weatherlink.com 1.10,2013-11-17 21:07:00,
2013-11-17 21:22:00,41.7,41.0,29.91,North,5,0.0,-999.0,98,-99.99,,,0.05,0,weatherlink.com 1.10,2013-11-17 21:22:00,
2013-11-17 21:37:00,41.9,41.0,29.91,North,5,0.0,-999.0,98,-99.99,,,0.05,0,weatherlink.com 1.10,2013-11-17 21:37:00,
2013-11-17 21:52:00,41.9,41.0,29.91,North,5,0.0,-999.0,98,-99.99,,,0.05,0,weatherlink.com 1.10,2013-11-17 21:52:00,
2013-11-17 22:07:00,42.0,42.0,29.91,North,5,0.0,-999.0,98,-99.99,,,0.05,0,weatherlink.com 1.10,2013-11-17 22:07:00,
2013-11-17 22:22:00,42.2,42.0,29.90,North,5,0.0,-999.0,98,-99.99,,,0.06,0,weatherlink.com 1.10,2013-11-17 22:22:00,
2013-11-17 22:37:00,42.6,42.0,29.90,North,5,0.0,-999.0,98,-99.99,,,0.06,0,weatherlink.com 1.10,2013-11-17 22:37:00,
2013-11-17 22:52:00,42.7,42.0,29.89,North,5,0.0,-999.0,98,-99.99,,,0.06,0,weatherlink.com 1.10,2013-11-17 22:52:00,
2013-11-17 23:07:00,42.6,42.0,29.89,North,5,0.0,-999.0,98,-99.99,,,0.06,0,weatherlink.com 1.10,2013-11-17 23:07:00,
2013-11-17 23:22:00,42.3,42.0,29.89,North,5,0.0,-999.0,97,-99.99,,,0.06,0,weatherlink.com 1.10,2013-11-17 23:22:00,
2013-11-17 23:37:00,42.1,42.0,29.88,NE,55,2.0,-999.0,98,-99.99,,,0.06,0,weatherlink.com 1.10,2013-11-17 23:37:00,
2013-11-17 23:52:00,42.3,42.0,29.88,NE,55,2.0,-999.0,98,-99.99,,,0.06,0,weatherlink.com 1.10,2013-11-17 23:52:00,